Time;durP1;ratioP1;P1;durP2;ratioP2;P2;SDS_P1;SDS_P2;PMS_P1;PMS_P2;Temp;Humidity;BMP_temperature;BMP_pressure;BME280_temperature;BME280_humidity;BME280_pressure;Samples;Min_cycle;Max_cycle;Signal;HPM_P1;HPM_P2
2022/05/08 00:00:32;;;;;;;23.67;21.07;;;16.30;99.90;;;;;;5009716;28;20840;-68
2022/05/08 00:02:58;;;;;;;21.33;18.73;;;16.30;99.90;;;;;;5011116;28;20351;-68
2022/05/08 00:05:25;;;;;;;20.97;18.87;;;16.20;99.90;;;;;;5010089;28;20429;-74
2022/05/08 00:07:51;;;;;;;21.47;19.10;;;16.20;99.90;;;;;;5012378;28;20194;-68
2022/05/08 00:10:17;;;;;;;19.63;17.67;;;16.20;99.90;;;;;;5012612;28;20596;-68
2022/05/08 00:12:43;;;;;;;19.70;17.70;;;16.00;99.90;;;;;;5011818;28;20228;-68
2022/05/08 00:15:09;;;;;;;20.87;18.73;;;16.00;99.90;;;;;;5009035;28;20435;-68
2022/05/08 00:17:35;;;;;;;19.23;17.23;;;16.00;99.90;;;;;;5009915;28;20486;-68
2022/05/08 00:20:03;;;;;;;19.30;17.40;;;16.00;99.90;;;;;;5012196;28;20924;-68
2022/05/08 00:22:28;;;;;;;19.83;17.83;;;16.00;99.90;;;;;;5011947;28;20245;-74
2022/05/08 00:24:55;;;;;;;20.77;18.67;;;16.00;99.90;;;;;;4995335;28;20460;-68
2022/05/08 00:27:21;;;;;;;19.40;17.33;;;16.10;99.90;;;;;;5012986;28;20185;-69
2022/05/08 00:29:47;;;;;;;17.47;15.77;;;16.10;99.90;;;;;;5012128;28;20413;-68
2022/05/08 00:32:12;;;;;;;17.20;15.40;;;16.00;99.90;;;;;;5012818;28;20190;-68
2022/05/08 00:34:38;;;;;;;16.10;14.47;;;16.00;99.90;;;;;;5011964;28;20422;-68
2022/05/08 00:37:05;;;;;;;14.70;13.20;;;16.00;99.90;;;;;;5012653;28;20180;-68
2022/05/08 00:39:32;;;;;;;15.13;13.63;;;16.00;99.90;;;;;;5012000;28;20228;-69
2022/05/08 00:41:59;;;;;;;17.20;13.50;;;16.00;99.90;;;;;;5011670;28;20475;-68
2022/05/08 00:44:25;;;;;;;15.17;12.20;;;16.00;99.90;;;;;;5012681;28;20462;-68
2022/05/08 00:46:50;;;;;;;12.63;11.33;;;16.10;99.90;;;;;;5011914;28;20421;-68
2022/05/08 00:49:16;;;;;;;13.23;11.50;;;16.00;99.90;;;;;;5012632;28;20472;-68
2022/05/08 00:51:47;;;;;;;12.47;11.20;;;15.90;99.90;;;;;;5011850;28;20541;-68
2022/05/08 00:54:13;;;;;;;11.50;10.30;;;16.00;99.90;;;;;;5012680;28;20265;-68
2022/05/08 00:56:39;;;;;;;14.23;10.07;;;15.90;99.90;;;;;;5011752;28;20409;-68
2022/05/08 00:59:05;;;;;;;11.90;10.57;;;15.90;99.90;;;;;;5012648;28;20414;-68
2022/05/08 01:01:31;;;;;;;16.20;10.20;;;16.00;99.90;;;;;;5010639;28;20781;-71
2022/05/08 01:03:57;;;;;;;11.47;10.33;;;15.90;99.90;;;;;;5012151;28;20213;-68
2022/05/08 01:06:23;;;;;;;10.70;9.60;;;15.90;99.90;;;;;;5011577;28;20464;-68
2022/05/08 01:08:50;;;;;;;10.20;9.30;;;15.90;99.90;;;;;;5010244;28;20257;-68
2022/05/08 01:11:17;;;;;;;11.30;10.20;;;16.00;99.90;;;;;;5012643;28;20499;-68
2022/05/08 01:13:44;;;;;;;11.40;10.40;;;15.90;99.90;;;;;;5009607;28;20413;-68
2022/05/08 01:16:20;;;;;;;10.10;9.20;;;15.90;99.90;;;;;;5010568;28;20451;-68
2022/05/08 01:18:48;;;;;;;10.07;9.00;;;15.90;99.90;;;;;;5010525;28;20432;-68
2022/05/08 01:21:16;;;;;;;10.37;9.30;;;15.80;99.90;;;;;;5012075;28;20458;-69
2022/05/08 01:23:42;;;;;;;10.50;9.40;;;15.80;99.90;;;;;;5011437;28;20493;-68
2022/05/08 01:26:08;;;;;;;9.80;9.00;;;15.90;99.90;;;;;;5012224;28;20937;-68
2022/05/08 01:28:35;;;;;;;10.90;9.80;;;15.80;99.90;;;;;;5010242;28;20472;-69
2022/05/08 01:31:00;;;;;;;9.47;8.67;;;15.80;99.90;;;;;;5010982;28;20969;-68
2022/05/08 01:33:26;;;;;;;10.30;9.23;;;15.70;99.90;;;;;;5012272;28;20529;-68
2022/05/08 01:35:52;;;;;;;10.27;9.20;;;15.60;99.90;;;;;;5011386;28;20181;-68
2022/05/08 01:38:20;;;;;;;9.23;8.33;;;15.60;99.90;;;;;;5011959;28;20425;-68
2022/05/08 01:40:46;;;;;;;9.10;8.30;;;15.60;99.90;;;;;;5011333;28;20414;-68
2022/05/08 01:43:13;;;;;;;10.63;9.57;;;15.60;99.90;;;;;;5011153;28;20890;-67
2022/05/08 01:45:39;;;;;;;10.90;9.00;;;15.60;99.90;;;;;;5010311;28;20426;-68
2022/05/08 01:48:21;;;;;;;10.03;9.07;;;15.50;99.90;;;;;;5011653;28;20530;-67
2022/05/08 01:50:51;;;;;;;12.93;10.03;;;15.50;99.90;;;;;;5014213;28;20440;-68
2022/05/08 01:53:19;;;;;;;10.13;9.23;;;15.50;99.90;;;;;;5015370;28;20471;-68
2022/05/08 01:55:45;;;;;;;9.87;8.90;;;15.50;99.90;;;;;;5012985;28;20441;-68
2022/05/08 01:58:11;;;;;;;10.37;9.00;;;15.40;99.90;;;;;;5015604;28;20813;-68
2022/05/08 02:00:37;;;;;;;10.80;9.80;;;15.30;99.90;;;;;;5014860;28;20408;-68
2022/05/08 02:03:04;;;;;;;10.17;9.00;;;15.20;99.90;;;;;;5014859;28;20216;-68
2022/05/08 02:05:31;;;;;;;11.17;10.07;;;15.20;99.90;;;;;;5015782;28;20180;-71
2022/05/08 02:07:57;;;;;;;11.90;10.73;;;15.10;99.90;;;;;;5014797;28;20522;-68
2022/05/08 02:10:24;;;;;;;12.43;10.17;;;15.00;99.90;;;;;;5015542;28;20414;-68
2022/05/08 02:12:50;;;;;;;12.00;10.60;;;15.00;99.90;;;;;;5014387;28;20442;-68
2022/05/08 02:15:15;;;;;;;11.30;10.17;;;14.90;99.90;;;;;;5013904;28;20477;-68
2022/05/08 02:17:41;;;;;;;10.47;9.43;;;14.90;99.90;;;;;;5014658;28;20427;-68
2022/05/08 02:20:09;;;;;;;9.90;8.90;;;14.90;99.90;;;;;;5015264;28;20283;-67
2022/05/08 02:22:36;;;;;;;11.17;10.03;;;14.80;99.90;;;;;;5013189;28;20525;-74
2022/05/08 02:25:01;;;;;;;11.80;10.27;;;14.80;99.90;;;;;;5015207;28;20418;-68
2022/05/08 02:27:35;;;;;;;11.70;10.63;;;14.70;99.90;;;;;;5015169;28;20411;-68
2022/05/08 02:30:00;;;;;;;12.00;9.70;;;14.70;99.90;;;;;;5014231;28;20211;-68
2022/05/08 02:32:26;;;;;;;11.40;10.30;;;14.60;99.90;;;;;;5015050;28;20929;-67
2022/05/08 02:34:52;;;;;;;12.37;10.50;;;14.70;99.90;;;;;;5014191;28;20444;-68
2022/05/08 02:37:17;;;;;;;13.10;10.27;;;14.70;99.90;;;;;;5014981;28;20190;-68
2022/05/08 02:39:43;;;;;;;13.73;9.43;;;14.70;99.90;;;;;;5012195;28;20227;-68
2022/05/08 02:42:09;;;;;;;14.23;9.97;;;14.70;99.90;;;;;;5014863;28;20231;-68
2022/05/08 02:44:34;;;;;;;11.47;9.90;;;14.70;99.90;;;;;;5013828;28;20223;-73
2022/05/08 02:47:00;;;;;;;12.80;9.87;;;14.70;99.90;;;;;;5014515;28;20261;-68
2022/05/08 02:49:26;;;;;;;12.20;9.40;;;14.70;99.90;;;;;;5013168;28;20688;-68
2022/05/08 02:51:51;;;;;;;12.23;9.47;;;14.70;99.90;;;;;;5013880;28;20183;-68
2022/05/08 02:54:17;;;;;;;13.10;10.43;;;14.60;99.90;;;;;;5014678;28;20187;-68
2022/05/08 02:59:27;;;;;;;13.57;9.87;;;14.40;99.90;;;;;;5014059;28;20202;-68
2022/05/08 03:01:53;;;;;;;12.40;9.80;;;14.40;99.90;;;;;;5011766;28;20418;-68
2022/05/08 03:04:18;;;;;;;9.67;8.60;;;14.40;99.90;;;;;;5014369;28;20246;-68
2022/05/08 03:06:44;;;;;;;10.73;9.63;;;14.40;99.90;;;;;;5012611;28;20615;-67
2022/05/08 03:09:10;;;;;;;10.40;9.30;;;14.30;99.90;;;;;;4996522;28;20601;-68
2022/05/08 03:11:36;;;;;;;13.53;9.90;;;14.40;99.90;;;;;;5013975;28;20179;-73
2022/05/08 03:14:02;;;;;;;14.47;9.13;;;14.30;99.90;;;;;;5013923;28;20266;-68
2022/05/08 03:16:28;;;;;;;10.43;8.73;;;14.30;99.90;;;;;;5014030;28;20426;-68
2022/05/08 03:18:55;;;;;;;11.37;10.03;;;14.30;99.90;;;;;;5013201;28;20422;-67
2022/05/08 03:21:22;;;;;;;10.13;9.00;;;14.30;99.90;;;;;;5013915;28;20541;-68
2022/05/08 03:23:48;;;;;;;13.73;9.50;;;14.30;99.90;;;;;;5011416;28;20480;-68
2022/05/08 03:26:15;;;;;;;13.17;9.70;;;14.30;99.90;;;;;;5011456;28;20461;-71
2022/05/08 03:28:42;;;;;;;11.60;9.73;;;14.20;99.90;;;;;;5012536;28;20442;-68
2022/05/08 03:31:08;;;;;;;10.67;9.00;;;14.20;99.90;;;;;;5014083;28;20453;-67
2022/05/08 03:33:36;;;;;;;11.50;10.40;;;14.20;99.90;;;;;;5013247;28;20448;-67
2022/05/08 03:36:02;;;;;;;12.90;9.63;;;14.10;99.90;;;;;;5013039;28;20887;-67
2022/05/08 03:38:28;;;;;;;12.73;8.63;;;14.00;99.90;;;;;;5013494;28;20955;-67
2022/05/08 03:40:55;;;;;;;13.93;9.23;;;13.90;99.90;;;;;;5012985;28;20421;-67
2022/05/08 03:43:21;;;;;;;14.40;8.73;;;13.80;99.90;;;;;;5012981;28;20208;-67
2022/05/08 03:45:49;;;;;;;17.00;9.77;;;13.80;99.90;;;;;;5011674;28;20420;-67
2022/05/08 03:48:16;;;;;;;13.70;9.07;;;13.80;99.90;;;;;;5013120;28;20847;-69
2022/05/08 03:50:41;;;;;;;12.77;8.87;;;13.80;99.90;;;;;;5010693;28;20456;-67
2022/05/08 03:53:07;;;;;;;11.30;8.50;;;13.80;99.90;;;;;;5013528;28;20417;-66
2022/05/08 03:55:33;;;;;;;12.53;8.63;;;13.80;99.90;;;;;;5013842;28;20182;-66
2022/05/08 03:57:59;;;;;;;17.30;9.70;;;13.90;99.90;;;;;;5012444;28;20252;-66
2022/05/08 04:00:24;;;;;;;11.77;8.00;;;13.90;99.90;;;;;;5013392;28;20182;-66
2022/05/08 04:02:50;;;;;;;8.40;7.53;;;13.80;99.90;;;;;;5012568;28;20210;-66
2022/05/08 04:05:16;;;;;;;12.97;7.83;;;13.70;99.90;;;;;;5012068;28;20181;-65
2022/05/08 04:07:42;;;;;;;9.37;7.67;;;13.70;99.90;;;;;;5012807;28;20185;-69
2022/05/08 04:10:08;;;;;;;10.27;7.37;;;13.70;99.90;;;;;;5013228;28;20405;-66
2022/05/08 04:12:35;;;;;;;10.30;7.30;;;13.60;99.90;;;;;;5012648;28;20519;-66
2022/05/08 04:15:01;;;;;;;7.87;7.00;;;13.60;99.90;;;;;;5012136;28;20430;-66
2022/05/08 04:17:28;;;;;;;10.17;7.27;;;13.60;99.90;;;;;;5012240;28;20445;-66
2022/05/08 04:19:55;;;;;;;9.67;7.87;;;13.60;99.90;;;;;;5012297;28;20779;-66
2022/05/08 04:25:07;;;;;;;9.93;6.83;;;13.70;99.90;;;;;;5012052;28;20400;-67
2022/05/08 04:27:35;;;;;;;14.17;7.83;;;13.60;99.90;;;;;;5027869;28;20908;-66
2022/05/08 04:30:02;;;;;;;13.57;7.47;;;13.70;99.90;;;;;;5011454;28;20525;-68
2022/05/08 04:32:28;;;;;;;12.47;6.77;;;13.60;99.90;;;;;;5013043;28;20436;-68
2022/05/08 04:34:53;;;;;;;10.13;7.03;;;13.70;99.90;;;;;;5012001;28;20425;-68
2022/05/08 04:37:19;;;;;;;12.77;6.83;;;13.70;99.90;;;;;;5012354;28;20190;-67
2022/05/08 04:39:45;;;;;;;14.33;6.97;;;13.70;99.90;;;;;;5012115;28;20179;-68
2022/05/08 04:42:11;;;;;;;7.67;6.57;;;13.70;99.90;;;;;;5013138;28;20281;-68
2022/05/08 04:44:37;;;;;;;12.20;6.73;;;13.70;99.90;;;;;;5012138;28;20486;-68
2022/05/08 04:47:03;;;;;;;10.40;6.90;;;13.70;99.90;;;;;;5012218;28;20427;-68
2022/05/08 04:49:29;;;;;;;15.13;8.23;;;13.60;99.80;;;;;;5012655;28;20563;-68
2022/05/08 04:51:55;;;;;;;15.47;8.60;;;13.60;99.90;;;;;;5010580;28;20429;-68
2022/05/08 04:54:23;;;;;;;11.63;7.57;;;13.70;99.90;;;;;;5011728;28;20444;-68
2022/05/08 04:56:49;;;;;;;11.87;6.90;;;13.70;99.90;;;;;;5011761;28;20846;-68
2022/05/08 04:59:15;;;;;;;13.50;8.17;;;13.70;99.90;;;;;;5012201;28;20411;-70
2022/05/08 05:01:41;;;;;;;14.83;7.77;;;13.70;99.50;;;;;;5012127;28;20825;-76
2022/05/08 05:04:06;;;;;;;11.80;7.40;;;13.70;99.50;;;;;;4994210;28;20521;-69
2022/05/08 05:06:32;;;;;;;13.33;8.50;;;13.70;99.30;;;;;;5011910;28;20216;-67
2022/05/08 05:08:58;;;;;;;13.23;6.63;;;13.70;99.30;;;;;;5010207;28;20185;-70
2022/05/08 05:11:24;;;;;;;11.80;5.97;;;13.70;99.80;;;;;;5010573;28;20196;-69
2022/05/08 05:13:50;;;;;;;12.27;7.00;;;13.70;99.40;;;;;;5010914;28;20795;-69
2022/05/08 05:16:15;;;;;;;8.60;6.30;;;13.70;99.10;;;;;;5012215;28;20177;-69
2022/05/08 05:18:41;;;;;;;9.70;6.40;;;13.60;99.20;;;;;;5012764;28;20193;-69
2022/05/08 05:21:07;;;;;;;9.20;6.73;;;13.60;98.90;;;;;;5011654;28;20569;-67
2022/05/08 05:23:36;;;;;;;12.13;6.70;;;13.60;98.70;;;;;;5012939;28;20232;-69
2022/05/08 05:26:03;;;;;;;12.27;6.07;;;13.70;98.90;;;;;;5015526;28;20571;-69
2022/05/08 05:28:29;;;;;;;10.90;6.17;;;13.70;98.70;;;;;;5016300;28;20414;-69
2022/05/08 05:30:55;;;;;;;10.80;6.27;;;13.60;98.90;;;;;;5014191;28;20819;-69
2022/05/08 05:33:20;;;;;;;12.23;8.10;;;13.60;98.80;;;;;;5015618;28;20435;-69
2022/05/08 05:35:46;;;;;;;9.43;6.43;;;13.70;99.10;;;;;;5015793;28;20186;-76
2022/05/08 05:38:12;;;;;;;10.70;6.13;;;13.70;99.10;;;;;;5015345;28;20189;-69
2022/05/08 05:40:37;;;;;;;12.60;5.43;;;13.80;98.60;;;;;;5016043;28;20186;-69
2022/05/08 05:43:03;;;;;;;13.07;6.47;;;13.70;98.60;;;;;;5012230;28;20458;-69
2022/05/08 05:45:29;;;;;;;12.87;6.10;;;13.70;99.20;;;;;;5015902;28;20173;-70
2022/05/08 05:47:55;;;;;;;10.90;5.63;;;13.80;99.00;;;;;;5013052;28;20211;-70
2022/05/08 05:50:24;;;;;;;16.37;7.27;;;13.70;99.00;;;;;;5015954;28;20229;-69
2022/05/08 05:52:51;;;;;;;12.53;7.67;;;13.80;99.10;;;;;;5015037;28;20189;-70
2022/05/08 05:55:18;;;;;;;10.97;6.40;;;13.90;98.70;;;;;;5015718;28;20411;-69
2022/05/08 05:57:44;;;;;;;12.30;6.57;;;13.80;98.50;;;;;;5014537;28;20992;-72
2022/05/08 06:00:16;;;;;;;11.47;6.60;;;13.80;98.70;;;;;;5013974;28;20424;-69
2022/05/08 06:02:43;;;;;;;13.50;6.30;;;13.80;98.50;;;;;;5015621;28;20478;-69
2022/05/08 06:05:11;;;;;;;9.20;5.70;;;13.80;98.30;;;;;;5013909;28;20526;-70
2022/05/08 06:07:38;;;;;;;10.33;6.00;;;13.90;98.20;;;;;;5015561;28;20417;-69
2022/05/08 06:10:06;;;;;;;15.27;6.00;;;13.80;97.80;;;;;;5014714;28;20427;-69
2022/05/08 06:12:33;;;;;;;11.50;6.10;;;13.80;97.70;;;;;;5013565;28;20441;-69
2022/05/08 06:14:59;;;;;;;12.47;6.00;;;13.90;97.90;;;;;;5014400;28;20498;-68
2022/05/08 06:17:25;;;;;;;10.13;6.57;;;13.90;97.50;;;;;;5014958;28;20418;-69
2022/05/08 06:19:50;;;;;;;15.70;6.93;;;13.90;97.60;;;;;;5013626;28;20798;-70
2022/05/08 06:22:16;;;;;;;9.60;5.80;;;13.80;97.10;;;;;;5013836;28;20178;-69
2022/05/08 06:24:42;;;;;;;11.90;5.63;;;13.80;97.40;;;;;;5015212;28;20215;-69
2022/05/08 06:27:07;;;;;;;12.23;7.20;;;13.60;97.50;;;;;;5014065;28;20173;-68
2022/05/08 06:29:33;;;;;;;10.87;6.27;;;13.60;98.00;;;;;;5014878;28;20250;-69
2022/05/08 06:31:59;;;;;;;13.13;5.93;;;13.60;97.80;;;;;;5012769;28;20174;-69
2022/05/08 06:34:28;;;;;;;12.63;7.23;;;13.80;97.80;;;;;;5012648;28;20475;-69
2022/05/08 06:36:55;;;;;;;10.93;5.80;;;13.70;97.80;;;;;;5012440;28;20189;-68
2022/05/08 06:39:21;;;;;;;12.43;5.87;;;13.80;97.50;;;;;;5013089;28;20423;-70
2022/05/08 06:41:47;;;;;;;8.27;5.83;;;13.80;97.50;;;;;;4996038;28;20441;-75
2022/05/08 06:44:14;;;;;;;11.50;5.73;;;13.80;97.30;;;;;;5013471;28;20536;-69
2022/05/08 06:46:40;;;;;;;8.10;5.30;;;13.80;98.00;;;;;;5013943;28;20435;-69
2022/05/08 06:49:07;;;;;;;11.00;6.67;;;13.90;98.30;;;;;;5013339;28;20457;-69
2022/05/08 06:51:34;;;;;;;13.33;6.10;;;13.80;98.10;;;;;;5012393;28;20776;-69
2022/05/08 06:54:00;;;;;;;10.20;5.30;;;13.90;98.30;;;;;;5011817;28;20777;-70
2022/05/08 06:56:26;;;;;;;14.10;7.00;;;13.90;98.30;;;;;;5014394;28;20431;-69
2022/05/08 07:01:43;;;;;;;12.23;6.33;;;13.90;97.80;;;;;;5012735;28;20414;-69
2022/05/08 07:04:11;;;;;;;9.77;6.93;;;14.00;97.80;;;;;;4999276;28;20452;-69
2022/05/08 07:06:38;;;;;;;13.90;7.47;;;13.90;97.60;;;;;;5020707;28;20452;-69
2022/05/08 07:09:05;;;;;;;8.53;5.90;;;13.90;98.10;;;;;;5019135;28;20424;-69
2022/05/08 07:11:31;;;;;;;13.90;7.47;;;13.40;98.70;;;;;;5013647;28;20420;-69
2022/05/08 07:13:57;;;;;;;12.50;6.70;;;13.30;98.50;;;;;;5011844;28;20439;-69
2022/05/08 07:16:23;;;;;;;10.87;7.70;;;13.40;98.80;;;;;;5011662;28;20460;-69
2022/05/08 07:18:49;;;;;;;68.27;40.60;;;13.50;99.20;;;;;;5011655;28;20440;-72
2022/05/08 07:21:15;;;;;;;50.87;32.60;;;13.70;99.90;;;;;;5011551;28;20433;-70
2022/05/08 07:23:41;;;;;;;35.70;21.40;;;14.20;99.90;;;;;;5012946;28;20991;-70
2022/05/08 07:26:07;;;;;;;21.37;12.57;;;14.50;99.90;;;;;;5012141;28;20191;-70
2022/05/08 07:28:33;;;;;;;24.17;15.67;;;14.80;99.90;;;;;;5012760;28;20452;-70
2022/05/08 07:30:59;;;;;;;14.30;8.80;;;15.10;99.90;;;;;;5011821;28;20796;-70
2022/05/08 07:33:25;;;;;;;15.57;8.53;;;15.40;99.90;;;;;;5012127;28;20452;-74
2022/05/08 07:38:35;;;;;;;24.53;12.60;;;15.80;99.90;;;;;;5012658;28;20181;-70
2022/05/08 07:41:02;;;;;;;13.70;8.50;;;16.10;99.90;;;;;;5011527;28;20951;-70
2022/05/08 07:43:28;;;;;;;36.43;25.70;;;16.30;98.50;;;;;;5011559;28;20736;-69
2022/05/08 07:45:53;;;;;;;41.40;30.10;;;16.60;99.90;;;;;;5010343;28;20430;-76
2022/05/08 07:48:19;;;;;;;48.97;33.93;;;17.00;98.00;;;;;;5011424;28;20492;-69
2022/05/08 07:50:45;;;;;;;123.33;82.63;;;17.10;96.30;;;;;;5012420;28;20272;-70
2022/05/08 07:53:15;;;;;;;15.80;10.73;;;17.10;93.30;;;;;;5010752;28;20438;-70
2022/05/08 07:55:41;;;;;;;28.40;20.40;;;17.10;93.70;;;;;;5026071;28;20429;-70
2022/05/08 07:58:09;;;;;;;20.93;15.63;;;17.10;95.30;;;;;;5011740;28;20779;-69
2022/05/08 08:00:36;;;;;;;25.10;16.30;;;17.20;95.00;;;;;;5011034;28;20438;-71
2022/05/08 08:03:03;;;;;;;22.03;13.80;;;17.30;94.30;;;;;;5010409;28;20846;-71
2022/05/08 08:05:29;;;;;;;20.60;13.03;;;17.30;93.80;;;;;;5011679;28;20851;-71
2022/05/08 08:07:55;;;;;;;18.70;13.33;;;17.40;93.80;;;;;;5012360;28;20433;-75
2022/05/08 08:10:21;;;;;;;18.83;11.00;;;17.40;92.60;;;;;;5011546;28;20470;-70
2022/05/08 08:12:47;;;;;;;16.07;10.10;;;17.40;93.80;;;;;;5013218;28;20183;-70
2022/05/08 08:15:13;;;;;;;14.07;10.50;;;17.50;92.40;;;;;;5010709;28;20178;-71
2022/05/08 08:17:39;;;;;;;17.80;12.17;;;17.50;92.90;;;;;;5012130;28;20444;-71
2022/05/08 08:20:06;;;;;;;14.33;9.80;;;17.60;92.90;;;;;;5011272;28;20187;-73
2022/05/08 08:22:33;;;;;;;13.73;9.57;;;17.70;93.40;;;;;;5012087;28;20183;-72
2022/05/08 08:25:00;;;;;;;14.47;10.50;;;17.70;92.30;;;;;;5010968;28;20430;-71
2022/05/08 08:27:27;;;;;;;14.80;10.93;;;17.80;93.00;;;;;;5010937;28;20920;-70
2022/05/08 08:29:54;;;;;;;16.23;10.63;;;17.90;92.70;;;;;;5011387;28;20512;-74
2022/05/08 08:32:23;;;;;;;13.97;7.67;;;17.90;92.60;;;;;;5008596;28;20448;-70
2022/05/08 08:34:49;;;;;;;31.87;23.27;;;17.90;91.50;;;;;;5007773;28;20801;-71
2022/05/08 08:37:15;;;;;;;34.20;15.90;;;17.90;92.30;;;;;;4992200;28;20399;-72
2022/05/08 08:39:42;;;;;;;13.67;9.70;;;17.90;91.40;;;;;;5008810;28;20269;-71
2022/05/08 08:42:24;;;;;;;9.90;7.97;;;18.00;91.60;;;;;;5010886;28;20434;-72
2022/05/08 08:47:48;;;;;;;9.83;7.47;;;18.20;91.50;;;;;;5012570;28;20436;-72
2022/05/08 08:50:15;;;;;;;13.10;8.53;;;18.30;91.90;;;;;;5007010;28;20549;-72
2022/05/08 08:52:42;;;;;;;13.27;9.60;;;18.50;90.60;;;;;;5011122;28;20457;-71
2022/05/08 08:55:08;;;;;;;12.97;9.63;;;18.70;91.40;;;;;;5011119;28;20464;-74
2022/05/08 08:57:34;;;;;;;13.00;8.87;;;18.70;90.80;;;;;;5010688;28;20521;-71
2022/05/08 09:00:00;;;;;;;11.10;7.50;;;18.90;90.90;;;;;;5011563;28;20990;-72
2022/05/08 09:02:26;;;;;;;11.37;7.53;;;19.00;90.30;;;;;;5011141;28;20422;-72
2022/05/08 09:04:54;;;;;;;14.17;6.03;;;18.90;89.50;;;;;;5012475;28;20186;-71
2022/05/08 09:07:35;;;;;;;9.57;6.20;;;19.10;89.30;;;;;;5011757;28;20178;-72
2022/05/08 09:10:07;;;;;;;8.67;5.60;;;19.10;88.10;;;;;;5010684;28;20442;-72
2022/05/08 09:12:34;;;;;;;9.00;7.53;;;19.20;88.00;;;;;;5011856;28;20438;-72
2022/05/08 09:15:08;;;;;;;10.30;6.23;;;19.20;90.20;;;;;;5009418;28;20441;-77
2022/05/08 09:17:44;;;;;;;12.70;7.90;;;19.30;87.70;;;;;;4995201;28;20438;-71
2022/05/08 09:20:46;;;;;;;8.97;7.00;;;19.30;87.40;;;;;;4992311;28;20509;-71
2022/05/08 09:23:20;;;;;;;11.00;7.00;;;19.20;87.90;;;;;;4991832;28;20453;-70
2022/05/08 09:26:00;;;;;;;22.77;15.33;;;19.30;89.30;;;;;;5003417;28;20442;-71
2022/05/08 09:28:28;;;;;;;15.00;10.53;;;19.30;89.10;;;;;;5012024;28;20414;-71
2022/05/08 09:31:10;;;;;;;9.63;6.80;;;19.30;89.20;;;;;;5012210;28;20793;-70
2022/05/08 09:33:47;;;;;;;12.80;7.90;;;19.20;88.60;;;;;;5011981;28;20460;-71
2022/05/08 09:36:25;;;;;;;14.80;6.87;;;19.00;88.10;;;;;;4991755;28;20408;-71
2022/05/08 09:38:55;;;;;;;7.50;6.33;;;19.00;89.90;;;;;;4992601;28;20419;-70
2022/05/08 09:41:22;;;;;;;8.37;5.17;;;19.10;90.30;;;;;;4991545;28;20749;-70
2022/05/08 09:43:52;;;;;;;7.90;5.93;;;19.20;87.50;;;;;;5008416;28;20473;-69
2022/05/08 09:46:20;;;;;;;10.40;6.10;;;19.10;85.40;;;;;;5010423;28;21200;-69
2022/05/08 09:48:46;;;;;;;32.37;25.03;;;19.00;85.50;;;;;;5010923;28;20473;-69
2022/05/08 09:51:15;;;;;;;21.50;11.30;;;18.90;85.70;;;;;;5010108;28;20972;-69
2022/05/08 09:53:43;;;;;;;28.57;19.20;;;18.70;85.00;;;;;;5009798;28;21038;-72
2022/05/08 09:56:10;;;;;;;9.73;6.00;;;18.50;86.40;;;;;;5011482;28;20467;-69
2022/05/08 09:58:40;;;;;;;8.70;6.00;;;18.30;86.60;;;;;;4990558;28;20782;-70
2022/05/08 10:01:07;;;;;;;7.40;5.07;;;18.20;88.00;;;;;;5009521;28;20933;-68
2022/05/08 10:03:33;;;;;;;7.93;5.90;;;18.20;89.50;;;;;;5010825;28;20872;-68
2022/05/08 10:06:00;;;;;;;10.03;6.00;;;18.10;88.40;;;;;;5011073;28;20465;-72
2022/05/08 10:08:34;;;;;;;7.50;5.60;;;18.10;89.00;;;;;;5011317;28;20421;-68
2022/05/08 10:13:57;;;;;;;10.90;5.40;;;17.80;89.50;;;;;;5014164;28;20438;-69
2022/05/08 10:16:48;;;;;;;9.07;6.13;;;18.00;90.80;;;;;;5013177;28;20445;-69
2022/05/08 10:19:19;;;;;;;9.50;6.43;;;18.00;88.80;;;;;;5014084;28;20434;-71
2022/05/08 10:22:09;;;;;;;17.17;7.60;;;18.10;93.90;;;;;;5014846;28;20777;-71
2022/05/08 10:24:40;;;;;;;19.60;10.90;;;18.90;93.50;;;;;;5029281;28;20445;-72
2022/05/08 10:27:15;;;;;;;14.20;7.77;;;19.20;91.10;;;;;;5013299;28;20901;-72
2022/05/08 10:29:50;;;;;;;10.63;5.40;;;19.40;89.80;;;;;;5014620;28;20460;-72
2022/05/08 10:32:42;;;;;;;10.43;5.83;;;19.50;87.30;;;;;;5014412;28;20408;-72
2022/05/08 10:35:12;;;;;;;15.43;6.23;;;19.70;86.20;;;;;;5005192;28;20536;-72
2022/05/08 10:37:42;;;;;;;7.87;5.10;;;19.80;84.20;;;;;;5013691;28;20516;-72
2022/05/08 10:40:22;;;;;;;10.40;6.10;;;19.90;83.80;;;;;;5013752;28;20800;-72
2022/05/08 10:42:55;;;;;;;5.37;4.87;;;20.20;82.20;;;;;;5014662;28;20413;-72
2022/05/08 10:45:33;;;;;;;6.67;5.00;;;20.20;80.70;;;;;;5012687;28;20410;-72
2022/05/08 10:48:05;;;;;;;7.97;5.20;;;20.40;79.70;;;;;;5014882;28;20468;-71
2022/05/08 10:50:31;;;;;;;8.43;5.00;;;20.40;78.70;;;;;;5014891;28;20906;-72
2022/05/08 10:52:58;;;;;;;8.13;5.50;;;20.50;78.60;;;;;;4997076;28;20526;-72
2022/05/08 10:55:25;;;;;;;7.90;5.20;;;20.60;78.20;;;;;;5013842;28;20417;-72
2022/05/08 10:57:52;;;;;;;13.67;10.90;;;20.80;77.80;;;;;;5014068;28;20417;-72
2022/05/08 11:00:20;;;;;;;26.25;22.45;;;20.70;77.20;;;;;;5013207;28;20438;-72
2022/05/08 11:02:50;;;;;;;10.13;6.57;;;20.70;76.80;;;;;;5014479;28;20627;-72
2022/05/08 11:05:20;;;;;;;6.40;5.73;;;20.90;76.80;;;;;;5013446;28;20820;-72
2022/05/08 11:07:50;;;;;;;5.83;5.27;;;21.00;75.80;;;;;;5013292;28;20445;-72
2022/05/08 11:10:24;;;;;;;7.93;5.93;;;21.10;74.90;;;;;;4996136;28;20771;-72
2022/05/08 11:12:56;;;;;;;8.20;6.60;;;21.10;73.80;;;;;;5014166;28;20433;-72
2022/05/08 11:15:23;;;;;;;7.17;6.37;;;20.80;68.90;;;;;;5013231;28;20418;-72
2022/05/08 11:18:02;;;;;;;6.60;6.00;;;20.80;69.90;;;;;;5014244;28;20418;-72
2022/05/08 11:20:27;;;;;;;8.00;5.53;;;20.70;72.60;;;;;;5011868;28;20429;-72
2022/05/08 11:22:54;;;;;;;8.93;6.53;;;20.70;72.40;;;;;;5013280;28;20476;-72
2022/05/08 11:25:20;;;;;;;6.37;5.77;;;20.90;71.50;;;;;;5013132;28;20174;-72
2022/05/08 11:27:55;;;;;;;7.20;5.90;;;21.00;68.80;;;;;;5013022;28;20430;-72
2022/05/08 11:30:42;;;;;;;6.57;5.47;;;21.00;70.70;;;;;;5012887;28;20321;-72
2022/05/08 11:36:04;;;;;;;5.77;5.30;;;21.10;71.00;;;;;;5013638;28;20463;-72
2022/05/08 11:38:44;;;;;;;8.33;6.10;;;21.20;71.80;;;;;;5013281;28;20401;-72
2022/05/08 11:41:22;;;;;;;6.70;5.90;;;21.40;70.60;;;;;;5012794;28;20480;-72
2022/05/08 11:43:52;;;;;;;6.00;4.93;;;21.50;70.60;;;;;;5013974;28;20805;-72
2022/05/08 11:46:39;;;;;;;6.17;5.57;;;21.60;68.30;;;;;;5011523;28;20477;-72
2022/05/08 11:49:23;;;;;;;5.40;4.87;;;21.60;67.90;;;;;;5011723;28;20461;-72
2022/05/08 11:51:56;;;;;;;154.43;123.40;;;21.50;69.10;;;;;;5013619;28;20398;-71
2022/05/08 11:54:27;;;;;;;10.37;7.00;;;20.90;62.30;;;;;;5012425;28;20937;-71
2022/05/08 11:57:15;;;;;;;57.67;38.53;;;19.90;63.90;;;;;;5013576;28;20822;-71
2022/05/08 11:59:43;;;;;;;8.38;6.28;;;19.50;69.30;;;;;;5012563;28;20494;-71
2022/05/08 12:02:10;;;;;;;6.10;5.50;;;19.40;70.30;;;;;;5012846;28;20217;-72
2022/05/08 12:04:36;;;;;;;9.27;8.13;;;19.30;70.80;;;;;;5012139;28;20476;-68
2022/05/08 12:07:13;;;;;;;8.73;7.77;;;19.60;73.40;;;;;;5011859;28;20422;-71
2022/05/08 12:09:41;;;;;;;6.27;5.73;;;19.90;72.80;;;;;;4995871;28;20417;-71
2022/05/08 12:12:29;;;;;;;7.90;6.43;;;20.00;71.80;;;;;;5009355;28;20426;-71
2022/05/08 12:15:03;;;;;;;7.30;6.20;;;19.90;75.30;;;;;;5012031;28;20195;-71
2022/05/08 12:17:44;;;;;;;7.30;6.40;;;20.20;77.40;;;;;;5009927;28;20644;-70
2022/05/08 12:20:14;;;;;;;6.20;5.00;;;20.50;75.00;;;;;;5010901;28;20440;-71
2022/05/08 12:22:41;;;;;;;6.50;5.23;;;20.70;74.40;;;;;;5008578;28;20442;-69
2022/05/08 12:25:08;;;;;;;6.20;4.90;;;20.90;70.80;;;;;;5009669;28;20520;-70
2022/05/08 12:27:34;;;;;;;5.37;4.63;;;21.10;74.10;;;;;;4992711;28;20432;-69
2022/05/08 12:30:02;;;;;;;5.60;4.40;;;21.20;71.70;;;;;;5010859;28;20424;-69
2022/05/08 12:32:28;;;;;;;296.47;186.70;;;21.30;69.90;;;;;;5005435;28;21067;-69
2022/05/08 12:34:57;;;;;;;39.87;28.57;;;21.40;69.00;;;;;;5008966;28;20432;-70
2022/05/08 12:37:23;;;;;;;13.50;10.20;;;21.50;72.70;;;;;;5010927;28;20607;-69
2022/05/08 12:39:49;;;;;;;10.73;5.40;;;21.70;69.10;;;;;;5008951;28;20826;-69
2022/05/08 12:42:15;;;;;;;6.30;4.40;;;21.80;70.60;;;;;;5010012;28;20480;-68
2022/05/08 12:44:41;;;;;;;6.67;4.20;;;21.80;68.20;;;;;;5004575;28;20493;-70
2022/05/08 12:47:09;;;;;;;5.73;3.87;;;21.80;66.20;;;;;;5011080;28;20623;-70
2022/05/08 12:49:36;;;;;;;6.90;5.20;;;21.80;66.60;;;;;;5009553;28;20461;-68
2022/05/08 12:52:03;;;;;;;4.60;4.03;;;21.80;68.50;;;;;;5012335;28;20834;-68
2022/05/08 12:54:29;;;;;;;7.47;4.60;;;21.90;67.10;;;;;;5011512;28;20479;-69
2022/05/08 12:56:55;;;;;;;3.33;3.10;;;22.00;64.00;;;;;;5012344;28;20425;-69
2022/05/08 13:02:06;;;;;;;5.43;4.73;;;21.90;63.80;;;;;;5012603;28;20405;-69